Weather at Arsuz Heliport

Public forecast

Using degrees Celsius for public forecast. Weather courtesy of forecast.io.

Closest aviation weather report (METAR) to Arsuz Heliport

Closest report is Hatay Airport, 19.6 nm (36.4 km) E.

2024/05/30 12:50 (retrieved 48 minutes ago)

LTDA 301250Z 24019KT 9999 SCT040 27/17 Q1010 NOSIG

Closest aviation forecast (TAF) to Arsuz Heliport

Closest forecast is İncirlik Air Base, 41.6 nm (77.1 km) NNW.

2024/05/30 12:00 (retrieved 2 hours ago)

TAF LTAG 301040Z 3012/3112 21012KT 9999 SCT035 BECMG 3016/3018 VRB02KT TEMPO 3100/3103 -SHRA BKN030 BKN090 TEMPO 3109/3112 -SHRA BKN030 BKN090 TAF LTAP 301040Z 3012/3112 03015KT 9999 SCT040 TEMPO 3012/3016 33015G28KT -TSRA SCT030CB BKN035 BECMG 3016/3019 VRB02KT